Time;durP1;ratioP1;P1;durP2;ratioP2;P2;SDS_P1;SDS_P2;PMS_P1;PMS_P2;Temp;Humidity;BMP_temperature;BMP_pressure;BME280_temperature;BME280_humidity;BME280_pressure;Samples;Min_cycle;Max_cycle;Signal;HPM_P1;HPM_P2
2023/06/19 00:00:13;;;;;;;7.83;5.50;;;;;;;;;;5059970;28;20919;-73
2023/06/19 00:02:40;;;;;;;6.97;6.27;;;;;;;;;;5077569;28;20982;-73
2023/06/19 00:05:07;;;;;;;6.97;6.27;;;;;;;;;;5078442;28;20461;-73
2023/06/19 00:07:33;;;;;;;7.27;6.50;;;;;;;;;;5078423;28;20915;-73
2023/06/19 00:09:59;;;;;;;7.20;6.50;;;;;;;;;;5078135;28;20414;-73
2023/06/19 00:12:25;;;;;;;6.63;6.03;;;;;;;;;;5078134;28;20413;-73
2023/06/19 00:14:51;;;;;;;8.50;6.40;;;;;;;;;;5077278;28;20411;-73
2023/06/19 00:17:17;;;;;;;8.63;6.40;;;;;;;;;;5077578;28;21064;-73
2023/06/19 00:19:44;;;;;;;6.83;6.13;;;;;;;;;;5077800;28;20423;-73
2023/06/19 00:22:10;;;;;;;8.83;6.57;;;;;;;;;;5077946;28;20511;-73
2023/06/19 00:24:36;;;;;;;7.53;6.93;;;;;;;;;;5077930;28;20403;-73
2023/06/19 00:27:02;;;;;;;8.00;7.10;;;;;;;;;;5078019;28;20411;-73
2023/06/19 00:29:29;;;;;;;9.00;5.50;;;;;;;;;;5077370;28;20415;-73
2023/06/19 00:31:55;;;;;;;6.80;6.10;;;;;;;;;;5077296;28;20417;-73
2023/06/19 00:34:24;;;;;;;7.00;6.40;;;;;;;;;;5077424;28;20415;-73
2023/06/19 00:36:50;;;;;;;6.87;6.17;;;;;;;;;;5076733;28;20479;-73
2023/06/19 00:39:16;;;;;;;7.83;6.10;;;;;;;;;;5077405;28;20414;-73
2023/06/19 00:41:43;;;;;;;6.30;5.70;;;;;;;;;;5077155;28;20410;-74
2023/06/19 00:44:09;;;;;;;7.20;6.50;;;;;;;;;;5077330;28;20442;-73
2023/06/19 00:46:39;;;;;;;6.93;6.33;;;;;;;;;;5077268;28;20443;-73
2023/06/19 00:49:06;;;;;;;7.43;6.80;;;;;;;;;;5077222;28;20452;-73
2023/06/19 00:51:32;;;;;;;9.83;7.00;;;;;;;;;;5077262;28;20374;-73
2023/06/19 00:53:58;;;;;;;7.97;7.27;;;;;;;;;;5076757;28;20903;-73
2023/06/19 00:56:24;;;;;;;8.00;7.13;;;;;;;;;;5077162;28;20431;-73
2023/06/19 00:58:51;;;;;;;7.90;7.20;;;;;;;;;;5076575;28;20451;-73
2023/06/19 01:01:18;;;;;;;7.77;7.00;;;;;;;;;;5077013;28;20413;-73
2023/06/19 01:03:44;;;;;;;6.60;6.00;;;;;;;;;;5076820;28;20773;-74
2023/06/19 01:06:16;;;;;;;8.20;7.47;;;;;;;;;;5076985;28;20415;-73
2023/06/19 01:08:56;;;;;;;8.50;6.67;;;;;;;;;;5076356;28;20763;-74
2023/06/19 01:11:25;;;;;;;13.83;6.93;;;;;;;;;;5077027;28;20405;-73
2023/06/19 01:13:57;;;;;;;10.77;7.10;;;;;;;;;;5076775;28;20436;-74
2023/06/19 01:16:24;;;;;;;7.77;7.07;;;;;;;;;;5076855;28;20385;-74
2023/06/19 01:18:50;;;;;;;7.97;7.27;;;;;;;;;;5076666;28;20455;-73
2023/06/19 01:21:17;;;;;;;10.00;7.30;;;;;;;;;;5076779;28;20385;-73
2023/06/19 01:23:44;;;;;;;8.00;7.20;;;;;;;;;;5076655;28;20401;-74
2023/06/19 01:26:10;;;;;;;9.03;7.33;;;;;;;;;;5077015;28;20418;-74
2023/06/19 01:28:37;;;;;;;7.27;6.50;;;;;;;;;;5076784;28;20403;-73
2023/06/19 01:31:04;;;;;;;7.30;6.60;;;;;;;;;;5076441;28;20415;-74
2023/06/19 01:33:32;;;;;;;8.43;7.63;;;;;;;;;;5076230;28;20403;-73
2023/06/19 01:35:59;;;;;;;8.20;7.50;;;;;;;;;;5076171;28;20505;-73
2023/06/19 01:38:26;;;;;;;8.13;7.43;;;;;;;;;;5076287;28;20451;-74
2023/06/19 01:40:56;;;;;;;9.63;7.87;;;;;;;;;;5076407;28;20423;-73
2023/06/19 01:43:22;;;;;;;8.10;7.40;;;;;;;;;;5076407;28;20434;-73
2023/06/19 01:45:48;;;;;;;7.93;6.93;;;;;;;;;;5076393;28;20395;-73
2023/06/19 01:48:15;;;;;;;10.07;7.00;;;;;;;;;;5076263;28;20421;-73
2023/06/19 01:50:42;;;;;;;8.57;7.77;;;;;;;;;;5076018;28;20435;-73
2023/06/19 01:53:08;;;;;;;10.87;7.00;;;;;;;;;;5076211;28;20490;-73
2023/06/19 01:55:34;;;;;;;11.07;7.70;;;;;;;;;;5076141;28;20404;-73
2023/06/19 01:58:01;;;;;;;9.60;8.13;;;;;;;;;;5074853;28;20458;-73
2023/06/19 02:00:27;;;;;;;11.17;7.27;;;;;;;;;;5076346;28;20422;-73
2023/06/19 02:02:53;;;;;;;8.33;7.43;;;;;;;;;;5075868;28;20761;-73
2023/06/19 02:05:19;;;;;;;8.77;7.93;;;;;;;;;;5075792;28;20411;-73
2023/06/19 02:07:45;;;;;;;8.90;8.00;;;;;;;;;;5075966;28;20472;-74
2023/06/19 02:10:11;;;;;;;10.43;7.30;;;;;;;;;;5076136;28;20435;-73
2023/06/19 02:12:37;;;;;;;9.37;8.40;;;;;;;;;;5075965;28;20820;-73
2023/06/19 02:15:03;;;;;;;8.97;8.10;;;;;;;;;;5075635;28;20760;-73
2023/06/19 02:17:29;;;;;;;8.67;7.77;;;;;;;;;;5075951;28;20481;-73
2023/06/19 02:19:55;;;;;;;8.70;7.83;;;;;;;;;;5075582;28;20423;-74
2023/06/19 02:22:21;;;;;;;8.87;8.07;;;;;;;;;;5076410;28;20472;-73
2023/06/19 02:24:47;;;;;;;7.80;7.07;;;;;;;;;;5075874;28;20396;-74
2023/06/19 02:27:15;;;;;;;7.97;7.17;;;;;;;;;;5076039;28;20804;-73
2023/06/19 02:29:41;;;;;;;7.47;6.77;;;;;;;;;;5076051;28;20450;-73
2023/06/19 02:32:08;;;;;;;7.40;6.80;;;;;;;;;;5075373;28;20419;-73
2023/06/19 02:34:34;;;;;;;8.10;7.40;;;;;;;;;;5075910;28;20753;-73
2023/06/19 02:37:00;;;;;;;9.03;8.13;;;;;;;;;;5074878;28;20526;-73
2023/06/19 02:39:26;;;;;;;8.17;7.47;;;;;;;;;;5075491;28;20446;-73
2023/06/19 02:41:52;;;;;;;9.10;8.27;;;;;;;;;;5075167;28;20933;-74
2023/06/19 02:44:18;;;;;;;8.70;7.83;;;;;;;;;;5075111;28;20412;-73
2023/06/19 02:46:44;;;;;;;9.17;8.37;;;;;;;;;;5075415;28;20415;-73
2023/06/19 02:49:10;;;;;;;8.60;7.80;;;;;;;;;;5075267;28;20422;-73
2023/06/19 02:51:36;;;;;;;8.97;8.07;;;;;;;;;;5075158;28;20902;-73
2023/06/19 02:54:02;;;;;;;8.47;7.77;;;;;;;;;;5075244;28;20802;-73
2023/06/19 02:56:28;;;;;;;8.70;7.80;;;;;;;;;;5075855;28;20426;-73
2023/06/19 02:58:54;;;;;;;8.60;7.80;;;;;;;;;;5074429;28;20467;-74
2023/06/19 03:01:20;;;;;;;7.30;6.60;;;;;;;;;;5074911;28;20498;-73
2023/06/19 03:03:47;;;;;;;8.13;7.43;;;;;;;;;;5074780;28;20439;-73
2023/06/19 03:06:13;;;;;;;8.73;7.60;;;;;;;;;;5075475;28;20809;-73
2023/06/19 03:08:40;;;;;;;9.23;8.00;;;;;;;;;;5075678;28;20476;-73
2023/06/19 03:11:06;;;;;;;8.13;7.33;;;;;;;;;;5078623;28;20393;-73
2023/06/19 03:13:46;;;;;;;7.60;6.90;;;;;;;;;;5079582;28;20439;-73
2023/06/19 03:16:12;;;;;;;8.50;7.70;;;;;;;;;;5078925;28;20398;-73
2023/06/19 03:18:38;;;;;;;8.03;7.03;;;;;;;;;;5079247;28;20493;-73
2023/06/19 03:21:04;;;;;;;11.33;6.67;;;;;;;;;;5079366;28;20399;-74
2023/06/19 03:23:30;;;;;;;12.00;6.23;;;;;;;;;;5079631;28;20417;-73
2023/06/19 03:25:57;;;;;;;8.60;6.93;;;;;;;;;;5079567;28;20790;-73
2023/06/19 03:28:23;;;;;;;8.20;6.53;;;;;;;;;;5079655;28;20415;-73
2023/06/19 03:30:50;;;;;;;9.40;6.50;;;;;;;;;;5078735;28;20994;-74
2023/06/19 03:33:16;;;;;;;8.17;6.27;;;;;;;;;;5079368;28;20396;-73
2023/06/19 03:35:42;;;;;;;7.40;5.97;;;;;;;;;;5079231;28;20973;-73
2023/06/19 03:38:08;;;;;;;8.03;6.27;;;;;;;;;;5079067;28;20867;-73
2023/06/19 03:40:34;;;;;;;8.40;6.20;;;;;;;;;;5079391;28;20480;-73
2023/06/19 03:43:00;;;;;;;6.50;5.90;;;;;;;;;;5078779;28;20399;-73
2023/06/19 03:45:26;;;;;;;5.90;5.30;;;;;;;;;;5079119;28;20407;-73
2023/06/19 03:47:52;;;;;;;11.20;5.37;;;;;;;;;;5079119;28;20473;-73
2023/06/19 03:50:18;;;;;;;7.30;5.40;;;;;;;;;;5078829;28;20386;-73
2023/06/19 03:52:44;;;;;;;9.90;5.60;;;;;;;;;;5079101;28;20398;-73
2023/06/19 03:55:10;;;;;;;7.30;5.30;;;;;;;;;;5078723;28;20373;-73
2023/06/19 03:57:36;;;;;;;6.73;5.30;;;;;;;;;;5078383;28;20458;-73
2023/06/19 04:00:07;;;;;;;5.97;5.20;;;;;;;;;;5078367;28;20443;-73
2023/06/19 04:02:33;;;;;;;5.43;4.93;;;;;;;;;;5078888;28;20438;-73
2023/06/19 04:04:59;;;;;;;8.23;4.60;;;;;;;;;;5079109;28;20422;-73
2023/06/19 04:07:25;;;;;;;5.90;4.00;;;;;;;;;;5078768;28;20407;-73
2023/06/19 04:09:51;;;;;;;4.20;3.80;;;;;;;;;;5078137;28;20403;-76
2023/06/19 04:12:17;;;;;;;8.00;4.63;;;;;;;;;;5078389;28;20403;-73
2023/06/19 04:14:43;;;;;;;7.60;4.00;;;;;;;;;;5078236;28;20406;-73
2023/06/19 04:17:09;;;;;;;8.03;5.53;;;;;;;;;;5078743;28;20470;-73
2023/06/19 04:19:35;;;;;;;6.10;4.40;;;;;;;;;;5078867;28;20407;-73
2023/06/19 04:22:01;;;;;;;5.60;3.93;;;;;;;;;;5077620;28;20407;-73
2023/06/19 04:24:27;;;;;;;5.70;3.97;;;;;;;;;;5078703;28;20411;-73
2023/06/19 04:26:53;;;;;;;6.00;3.70;;;;;;;;;;5078086;28;20395;-73
2023/06/19 04:29:19;;;;;;;7.20;3.87;;;;;;;;;;5078684;28;20378;-73
2023/06/19 04:31:48;;;;;;;5.23;3.40;;;;;;;;;;5078354;28;20410;-73
2023/06/19 04:34:20;;;;;;;3.90;3.60;;;;;;;;;;5078259;28;20403;-73
2023/06/19 04:36:46;;;;;;;5.13;3.77;;;;;;;;;;5078495;28;20575;-73
2023/06/19 04:39:12;;;;;;;5.33;3.73;;;;;;;;;;5077949;28;20945;-73
2023/06/19 04:41:38;;;;;;;7.60;4.13;;;;;;;;;;5077925;28;20986;-73
2023/06/19 04:44:08;;;;;;;3.80;3.13;;;;;;;;;;5078489;28;20407;-73
2023/06/19 04:46:34;;;;;;;5.33;4.10;;;;;;;;;;5078799;28;20872;-73
2023/06/19 04:49:03;;;;;;;4.30;3.10;;;;;;;;;;5078462;28;20411;-73
2023/06/19 04:51:29;;;;;;;6.40;3.13;;;;;;;;;;5078449;28;20381;-73
2023/06/19 04:53:55;;;;;;;3.93;3.17;;;;;;;;;;5078332;28;20888;-74
2023/06/19 04:56:21;;;;;;;3.80;3.00;;;;;;;;;;5078387;28;20418;-73
2023/06/19 04:58:48;;;;;;;6.77;3.33;;;;;;;;;;5078211;28;20454;-73
2023/06/19 05:01:15;;;;;;;3.33;2.90;;;;;;;;;;5077983;28;20560;-73
2023/06/19 05:03:41;;;;;;;3.30;2.87;;;;;;;;;;5078499;28;20395;-73
2023/06/19 05:06:08;;;;;;;5.63;3.47;;;;;;;;;;5077852;28;20403;-73
2023/06/19 05:08:34;;;;;;;6.90;3.30;;;;;;;;;;5060421;28;20895;-73
2023/06/19 05:11:00;;;;;;;3.40;2.87;;;;;;;;;;5077327;28;20431;-73
2023/06/19 05:13:26;;;;;;;4.13;3.03;;;;;;;;;;5077999;28;20414;-73
2023/06/19 05:15:52;;;;;;;3.83;3.30;;;;;;;;;;5077714;28;20422;-73
2023/06/19 05:18:18;;;;;;;4.33;3.27;;;;;;;;;;5077284;28;20586;-73
2023/06/19 05:20:45;;;;;;;3.73;3.00;;;;;;;;;;5077425;28;20414;-73
2023/06/19 05:23:11;;;;;;;3.90;2.77;;;;;;;;;;5077641;28;20399;-73
2023/06/19 05:25:37;;;;;;;4.70;2.67;;;;;;;;;;5077778;28;20400;-73
2023/06/19 05:28:03;;;;;;;6.73;3.37;;;;;;;;;;5077280;28;20481;-73
2023/06/19 05:30:29;;;;;;;7.90;3.53;;;;;;;;;;5077383;28;20415;-73
2023/06/19 05:32:56;;;;;;;4.10;2.03;;;;;;;;;;5077178;28;20537;-74
2023/06/19 05:35:22;;;;;;;4.03;2.57;;;;;;;;;;5076828;28;21032;-73
2023/06/19 05:37:48;;;;;;;2.30;2.00;;;;;;;;;;5077504;28;20450;-73
2023/06/19 05:40:14;;;;;;;1.83;1.73;;;;;;;;;;5076598;28;20886;-74
2023/06/19 05:42:40;;;;;;;3.17;2.17;;;;;;;;;;5076051;28;20952;-73
2023/06/19 05:45:07;;;;;;;2.97;2.60;;;;;;;;;;5076863;28;20407;-73
2023/06/19 05:47:33;;;;;;;2.73;1.93;;;;;;;;;;5077189;28;20419;-73
2023/06/19 05:49:59;;;;;;;2.80;1.93;;;;;;;;;;5076950;28;20494;-74
2023/06/19 05:52:26;;;;;;;2.47;2.27;;;;;;;;;;5076688;28;20422;-73
2023/06/19 05:54:53;;;;;;;2.80;2.40;;;;;;;;;;5076935;28;20821;-73
2023/06/19 05:57:23;;;;;;;2.90;1.90;;;;;;;;;;5076610;28;20462;-73
2023/06/19 05:59:49;;;;;;;5.20;2.00;;;;;;;;;;5077140;28;20403;-73
2023/06/19 06:02:15;;;;;;;3.43;2.23;;;;;;;;;;5076381;28;20486;-73
2023/06/19 06:04:42;;;;;;;3.53;2.20;;;;;;;;;;5076902;28;20399;-73
2023/06/19 06:07:08;;;;;;;3.07;2.10;;;;;;;;;;5076654;28;20492;-73
2023/06/19 06:09:34;;;;;;;3.90;2.10;;;;;;;;;;5077046;28;20810;-73
2023/06/19 06:12:00;;;;;;;2.53;2.20;;;;;;;;;;5076688;28;20725;-74
2023/06/19 06:14:27;;;;;;;2.07;1.77;;;;;;;;;;5076477;28;20772;-73
2023/06/19 06:16:53;;;;;;;2.83;1.60;;;;;;;;;;5076870;28;20407;-73
2023/06/19 06:19:23;;;;;;;3.50;1.70;;;;;;;;;;5076291;28;20419;-73
2023/06/19 06:21:50;;;;;;;1.77;1.50;;;;;;;;;;5076795;28;20406;-73
2023/06/19 06:24:16;;;;;;;1.40;1.30;;;;;;;;;;5076769;28;20398;-73
2023/06/19 06:26:42;;;;;;;2.00;1.63;;;;;;;;;;5076392;28;20479;-73
2023/06/19 06:29:08;;;;;;;1.70;1.50;;;;;;;;;;5076395;28;20805;-73
2023/06/19 06:31:34;;;;;;;1.73;1.57;;;;;;;;;;5076391;28;20486;-73
2023/06/19 06:34:00;;;;;;;1.70;1.40;;;;;;;;;;5075756;28;20406;-74
2023/06/19 06:36:26;;;;;;;1.50;1.33;;;;;;;;;;5076623;28;20450;-73
2023/06/19 06:38:52;;;;;;;1.40;1.30;;;;;;;;;;5076423;28;20466;-73
2023/06/19 06:41:18;;;;;;;3.27;1.60;;;;;;;;;;5076248;28;20426;-73
2023/06/19 06:43:44;;;;;;;1.57;1.37;;;;;;;;;;5076708;28;20399;-73
2023/06/19 06:46:11;;;;;;;2.70;1.40;;;;;;;;;;5075863;28;20412;-74
2023/06/19 06:48:37;;;;;;;2.40;1.93;;;;;;;;;;5076197;28;20407;-73
2023/06/19 06:51:03;;;;;;;2.20;1.83;;;;;;;;;;5076368;28;20789;-74
2023/06/19 06:53:31;;;;;;;3.13;1.77;;;;;;;;;;5076615;28;20407;-73
2023/06/19 06:55:57;;;;;;;2.60;1.40;;;;;;;;;;5075826;28;20415;-73
2023/06/19 06:58:24;;;;;;;1.43;1.30;;;;;;;;;;5075725;28;20470;-73
2023/06/19 07:00:50;;;;;;;1.80;1.47;;;;;;;;;;5076430;28;20407;-73
2023/06/19 07:03:17;;;;;;;4.30;1.80;;;;;;;;;;5076302;28;20402;-73
2023/06/19 07:05:43;;;;;;;1.73;1.40;;;;;;;;;;5076126;28;20952;-73
2023/06/19 07:08:10;;;;;;;3.27;1.43;;;;;;;;;;5075867;28;20399;-74
2023/06/19 07:10:36;;;;;;;3.30;1.50;;;;;;;;;;5075633;28;20411;-73
2023/06/19 07:13:02;;;;;;;4.03;1.83;;;;;;;;;;5076069;28;20468;-77
2023/06/19 07:15:28;;;;;;;2.57;1.30;;;;;;;;;;5075838;28;20403;-73
2023/06/19 07:17:54;;;;;;;1.37;1.27;;;;;;;;;;5075922;28;20473;-73
2023/06/19 07:20:20;;;;;;;3.00;1.90;;;;;;;;;;5075917;28;20498;-74
2023/06/19 07:22:46;;;;;;;2.80;1.80;;;;;;;;;;5075906;28;20395;-73
2023/06/19 07:25:12;;;;;;;1.47;1.37;;;;;;;;;;5075730;28;20426;-73
2023/06/19 07:27:39;;;;;;;2.50;1.80;;;;;;;;;;5075632;28;20403;-74
2023/06/19 07:30:05;;;;;;;2.47;1.73;;;;;;;;;;5075387;28;20407;-73
2023/06/19 07:32:31;;;;;;;4.00;1.83;;;;;;;;;;5075115;28;20498;-74
2023/06/19 07:34:57;;;;;;;4.57;1.80;;;;;;;;;;5076021;28;20427;-73
2023/06/19 07:37:23;;;;;;;3.43;2.07;;;;;;;;;;5075159;28;20559;-73
2023/06/19 07:39:50;;;;;;;3.27;2.13;;;;;;;;;;5074472;28;20829;-74
2023/06/19 07:42:16;;;;;;;5.80;2.13;;;;;;;;;;5075076;28;20463;-75
2023/06/19 07:44:42;;;;;;;2.80;2.00;;;;;;;;;;5074388;28;20835;-74
2023/06/19 07:47:09;;;;;;;3.30;1.80;;;;;;;;;;5074772;28;20427;-74
2023/06/19 07:49:35;;;;;;;1.97;1.77;;;;;;;;;;5075840;28;20395;-73
2023/06/19 07:52:02;;;;;;;3.43;1.80;;;;;;;;;;5075546;28;20399;-73
2023/06/19 07:54:28;;;;;;;2.10;1.60;;;;;;;;;;5075101;28;20403;-73
2023/06/19 07:56:54;;;;;;;2.23;1.83;;;;;;;;;;5076461;28;20414;-73
2023/06/19 07:59:20;;;;;;;3.00;1.83;;;;;;;;;;5078565;28;20466;-74
2023/06/19 08:01:46;;;;;;;3.03;2.17;;;;;;;;;;5078717;28;20411;-74
2023/06/19 08:04:12;;;;;;;2.33;2.13;;;;;;;;;;5078518;28;20871;-74
2023/06/19 08:06:38;;;;;;;4.07;2.17;;;;;;;;;;5078760;28;20809;-74
2023/06/19 08:09:04;;;;;;;6.67;2.23;;;;;;;;;;5078577;28;20414;-73
2023/06/19 08:11:30;;;;;;;4.00;2.00;;;;;;;;;;5078750;28;20407;-73
2023/06/19 08:13:57;;;;;;;2.43;2.20;;;;;;;;;;5078644;28;20411;-74
2023/06/19 08:16:23;;;;;;;2.57;1.90;;;;;;;;;;5077673;28;20410;-74
2023/06/19 08:18:49;;;;;;;4.00;2.30;;;;;;;;;;5078446;28;20500;-73
2023/06/19 08:21:15;;;;;;;2.70;2.47;;;;;;;;;;5078357;28;20419;-74
2023/06/19 08:23:43;;;;;;;3.27;2.20;;;;;;;;;;5078557;28;20407;-74
2023/06/19 08:26:09;;;;;;;3.53;2.33;;;;;;;;;;5078128;28;20974;-74
2023/06/19 08:28:35;;;;;;;6.03;2.87;;;;;;;;;;5078522;28;20442;-74
2023/06/19 08:31:01;;;;;;;3.63;2.53;;;;;;;;;;5078311;28;20403;-74
2023/06/19 08:33:27;;;;;;;4.13;2.80;;;;;;;;;;5077541;28;20408;-74
2023/06/19 08:35:53;;;;;;;3.83;2.63;;;;;;;;;;5068248;28;20468;-74
2023/06/19 08:38:19;;;;;;;4.33;2.90;;;;;;;;;;5097584;28;20560;-73
2023/06/19 08:40:46;;;;;;;4.37;3.13;;;;;;;;;;5098309;28;20399;-73
2023/06/19 08:43:12;;;;;;;2.90;2.70;;;;;;;;;;5097922;28;20411;-74
2023/06/19 08:45:38;;;;;;;5.40;2.50;;;;;;;;;;5097733;28;20406;-74
2023/06/19 08:48:04;;;;;;;2.87;2.50;;;;;;;;;;5098140;28;20414;-74
2023/06/19 08:50:31;;;;;;;4.53;2.90;;;;;;;;;;5097657;28;20434;-74
2023/06/19 08:52:57;;;;;;;4.10;3.10;;;;;;;;;;5098064;28;20411;-74
2023/06/19 08:55:23;;;;;;;5.47;3.00;;;;;;;;;;5097254;28;20414;-74
2023/06/19 08:57:50;;;;;;;5.57;4.07;;;;;;;;;;5097634;28;20965;-74
2023/06/19 09:00:29;;;;;;;5.67;3.43;;;;;;;;;;5098222;28;20449;-74
2023/06/19 09:03:02;;;;;;;3.63;3.20;;;;;;;;;;5098200;28;20409;-74
2023/06/19 09:05:28;;;;;;;4.37;3.10;;;;;;;;;;5097698;28;20403;-72
2023/06/19 09:07:56;;;;;;;4.43;3.30;;;;;;;;;;5096950;28;20441;-71
2023/06/19 09:10:23;;;;;;;5.00;3.40;;;;;;;;;;5096824;28;20412;-73
2023/06/19 09:12:57;;;;;;;3.90;3.40;;;;;;;;;;5097394;28;20413;-73
2023/06/19 09:15:23;;;;;;;6.80;3.60;;;;;;;;;;5096912;28;20933;-73
2023/06/19 09:17:59;;;;;;;6.50;3.50;;;;;;;;;;5097249;28;20457;-73
2023/06/19 09:20:29;;;;;;;4.40;3.33;;;;;;;;;;5096926;28;20432;-73
2023/06/19 09:22:58;;;;;;;4.00;3.60;;;;;;;;;;5097290;28;20791;-73
2023/06/19 09:25:26;;;;;;;5.63;3.67;;;;;;;;;;5097020;28;20402;-73
2023/06/19 09:27:52;;;;;;;4.30;3.23;;;;;;;;;;5096749;28;20406;-73
2023/06/19 09:30:18;;;;;;;4.00;3.70;;;;;;;;;;5096581;28;20604;-73
2023/06/19 09:32:45;;;;;;;4.00;3.60;;;;;;;;;;5096541;28;20424;-73
2023/06/19 09:35:11;;;;;;;3.60;3.30;;;;;;;;;;5096212;28;20406;-76
2023/06/19 09:37:38;;;;;;;2.97;2.67;;;;;;;;;;5076258;28;20469;-73
2023/06/19 09:40:10;;;;;;;4.10;3.47;;;;;;;;;;5076045;28;20400;-73
2023/06/19 09:42:43;;;;;;;8.13;3.43;;;;;;;;;;5076182;28;20914;-74
2023/06/19 09:45:11;;;;;;;3.83;3.30;;;;;;;;;;5075637;28;20498;-74
2023/06/19 09:47:38;;;;;;;4.53;3.50;;;;;;;;;;5075581;28;21013;-73
2023/06/19 09:50:04;;;;;;;4.10;3.40;;;;;;;;;;5075202;28;20403;-74
2023/06/19 09:52:31;;;;;;;4.93;3.63;;;;;;;;;;5075230;28;20797;-73
2023/06/19 09:55:00;;;;;;;6.60;3.97;;;;;;;;;;5075013;28;20456;-72
2023/06/19 09:57:26;;;;;;;5.37;3.67;;;;;;;;;;5074466;28;20467;-73
2023/06/19 09:59:56;;;;;;;7.33;3.83;;;;;;;;;;5074562;28;20406;-72
2023/06/19 10:02:22;;;;;;;7.53;4.17;;;;;;;;;;5075016;28;20800;-73
2023/06/19 10:04:55;;;;;;;3.40;3.10;;;;;;;;;;5074449;28;20490;-74
2023/06/19 10:07:27;;;;;;;5.83;3.43;;;;;;;;;;5074084;28;20406;-74
2023/06/19 10:10:06;;;;;;;5.40;3.50;;;;;;;;;;5074259;28;20443;-73
2023/06/19 10:12:46;;;;;;;7.00;3.80;;;;;;;;;;5074207;28;21092;-74
2023/06/19 10:15:21;;;;;;;5.93;4.23;;;;;;;;;;5074706;28;20417;-74
2023/06/19 10:17:51;;;;;;;5.00;3.30;;;;;;;;;;5074402;28;20481;-73
2023/06/19 10:20:43;;;;;;;5.80;3.97;;;;;;;;;;5073521;28;20404;-74
2023/06/19 10:23:13;;;;;;;6.00;3.87;;;;;;;;;;5070246;28;20504;-73
2023/06/19 10:25:41;;;;;;;7.53;3.80;;;;;;;;;;5074247;28;20407;-74
2023/06/19 10:28:19;;;;;;;5.13;3.83;;;;;;;;;;5074724;28;20407;-73
2023/06/19 10:30:45;;;;;;;3.97;3.37;;;;;;;;;;5074514;28;20404;-73
2023/06/19 10:33:11;;;;;;;3.83;3.53;;;;;;;;;;5074028;28;20407;-74
2023/06/19 10:35:41;;;;;;;7.37;3.57;;;;;;;;;;5073604;28;20467;-74
2023/06/19 10:38:09;;;;;;;5.47;4.23;;;;;;;;;;5073986;28;20954;-73
2023/06/19 10:40:37;;;;;;;4.10;3.30;;;;;;;;;;5073501;28;20491;-73
2023/06/19 10:43:04;;;;;;;5.63;3.97;;;;;;;;;;5074186;28;20403;-73
2023/06/19 10:45:30;;;;;;;6.27;3.53;;;;;;;;;;5073727;28;20918;-74
2023/06/19 10:47:56;;;;;;;5.80;4.10;;;;;;;;;;5073732;28;20430;-73
2023/06/19 10:50:22;;;;;;;3.70;3.27;;;;;;;;;;5073574;28;20427;-74
2023/06/19 10:52:49;;;;;;;4.67;3.93;;;;;;;;;;5073977;28;20875;-74
2023/06/19 10:55:15;;;;;;;6.67;4.20;;;;;;;;;;5074120;28;20415;-77
2023/06/19 10:57:45;;;;;;;6.83;3.77;;;;;;;;;;5074192;28;20458;-73
2023/06/19 11:00:12;;;;;;;10.20;4.20;;;;;;;;;;5074000;28;20935;-73
2023/06/19 11:02:43;;;;;;;6.10;4.03;;;;;;;;;;5073398;28;20425;-73
2023/06/19 11:05:12;;;;;;;6.67;3.60;;;;;;;;;;5074047;28;20909;-73
2023/06/19 11:07:38;;;;;;;4.80;4.30;;;;;;;;;;5073500;28;20902;-74
2023/06/19 11:10:05;;;;;;;4.30;3.90;;;;;;;;;;5073774;28;20505;-74
2023/06/19 11:12:32;;;;;;;6.97;4.37;;;;;;;;;;5073932;28;20414;-74
2023/06/19 11:14:58;;;;;;;5.30;4.13;;;;;;;;;;5073828;28;20419;-74
2023/06/19 11:17:24;;;;;;;5.93;4.27;;;;;;;;;;5073710;28;20419;-74
2023/06/19 11:19:51;;;;;;;4.57;3.90;;;;;;;;;;5073911;28;20415;-74
2023/06/19 11:22:17;;;;;;;4.30;3.90;;;;;;;;;;5073742;28;20400;-77
2023/06/19 11:24:44;;;;;;;4.80;3.93;;;;;;;;;;5073764;28;20556;-73
2023/06/19 11:27:17;;;;;;;9.20;4.00;;;;;;;;;;5073850;28;20411;-73
2023/06/19 11:29:43;;;;;;;4.90;4.30;;;;;;;;;;5073559;28;20398;-73
2023/06/19 11:32:11;;;;;;;4.73;4.03;;;;;;;;;;5076577;28;20404;-74
2023/06/19 11:34:37;;;;;;;4.33;3.90;;;;;;;;;;5076987;28;20509;-74
2023/06/19 11:37:12;;;;;;;7.30;4.40;;;;;;;;;;5077322;28;20458;-74
2023/06/19 11:39:39;;;;;;;7.97;3.93;;;;;;;;;;5076954;28;20484;-74
2023/06/19 11:42:05;;;;;;;4.87;3.80;;;;;;;;;;5076967;28;20403;-74
2023/06/19 11:44:31;;;;;;;6.90;3.90;;;;;;;;;;5076540;28;20399;-75
2023/06/19 11:47:03;;;;;;;6.83;4.50;;;;;;;;;;5076433;28;20797;-74
2023/06/19 11:49:35;;;;;;;4.80;4.17;;;;;;;;;;5076571;28;20399;-74
2023/06/19 11:52:01;;;;;;;5.70;3.77;;;;;;;;;;5076413;28;20891;-74
2023/06/19 11:54:27;;;;;;;4.40;4.00;;;;;;;;;;5075986;28;20914;-74
2023/06/19 11:56:53;;;;;;;6.40;3.90;;;;;;;;;;5076066;28;20407;-75
2023/06/19 11:59:19;;;;;;;4.20;3.80;;;;;;;;;;5076219;28;20465;-76
2023/06/19 12:01:45;;;;;;;7.10;4.13;;;;;;;;;;5076456;28;20757;-75
2023/06/19 12:04:11;;;;;;;4.60;4.20;;;;;;;;;;5076316;28;20406;-75
2023/06/19 12:06:37;;;;;;;5.50;4.30;;;;;;;;;;5075863;28;20411;-74
2023/06/19 12:09:07;;;;;;;7.93;3.87;;;;;;;;;;5076191;28;20405;-74
2023/06/19 12:11:33;;;;;;;4.33;3.93;;;;;;;;;;5075776;28;20766;-75
2023/06/19 12:13:59;;;;;;;6.80;3.53;;;;;;;;;;5076051;28;20407;-75
2023/06/19 12:16:25;;;;;;;5.53;3.80;;;;;;;;;;5075822;28;20407;-75
2023/06/19 12:18:51;;;;;;;3.80;3.50;;;;;;;;;;5076040;28;20950;-75
2023/06/19 12:21:17;;;;;;;5.50;3.10;;;;;;;;;;5076001;28;20407;-74
2023/06/19 12:23:43;;;;;;;5.20;4.70;;;;;;;;;;5075399;28;20766;-74
2023/06/19 12:26:09;;;;;;;4.57;4.17;;;;;;;;;;5075649;28;20403;-75
2023/06/19 12:28:35;;;;;;;3.67;3.37;;;;;;;;;;5075568;28;20403;-74
2023/06/19 12:31:03;;;;;;;4.07;3.67;;;;;;;;;;5075689;28;20418;-75
2023/06/19 12:33:32;;;;;;;6.00;3.97;;;;;;;;;;5075603;28;20472;-75
2023/06/19 12:35:58;;;;;;;4.80;3.63;;;;;;;;;;5075645;28;20517;-74
2023/06/19 12:38:24;;;;;;;5.70;3.70;;;;;;;;;;5075148;28;20462;-75
2023/06/19 12:40:50;;;;;;;4.60;3.43;;;;;;;;;;5075359;28;20403;-75
2023/06/19 12:43:16;;;;;;;3.90;3.50;;;;;;;;;;5074988;28;20789;-75
2023/06/19 12:45:42;;;;;;;5.57;3.83;;;;;;;;;;5075223;28;20407;-75
2023/06/19 12:48:11;;;;;;;4.53;3.83;;;;;;;;;;5075440;28;20418;-74
2023/06/19 12:50:37;;;;;;;3.80;3.13;;;;;;;;;;5075097;28;20403;-75
2023/06/19 12:53:03;;;;;;;3.70;3.30;;;;;;;;;;5075133;28;20457;-74
2023/06/19 12:55:29;;;;;;;3.73;3.40;;;;;;;;;;5075071;28;20403;-75
2023/06/19 12:57:55;;;;;;;5.47;4.03;;;;;;;;;;5075109;28;20561;-75
2023/06/19 13:00:21;;;;;;;5.63;3.60;;;;;;;;;;5075343;28;20495;-74
2023/06/19 13:02:47;;;;;;;3.67;3.37;;;;;;;;;;5075057;28;20426;-75
2023/06/19 13:05:13;;;;;;;5.40;4.10;;;;;;;;;;5075104;28;20406;-72
2023/06/19 13:07:39;;;;;;;8.13;3.80;;;;;;;;;;5074684;28;20422;-72
2023/06/19 13:10:06;;;;;;;5.97;3.60;;;;;;;;;;5074842;28;20410;-75
2023/06/19 13:12:32;;;;;;;4.33;3.57;;;;;;;;;;5074920;28;20403;-74
2023/06/19 13:14:58;;;;;;;4.47;4.07;;;;;;;;;;5074997;28;20411;-75
2023/06/19 13:17:24;;;;;;;4.90;3.63;;;;;;;;;;5074532;28;20433;-76
2023/06/19 13:19:50;;;;;;;4.13;3.83;;;;;;;;;;5074940;28;20508;-75
2023/06/19 13:22:16;;;;;;;4.53;4.07;;;;;;;;;;5074807;28;20396;-75
2023/06/19 13:24:42;;;;;;;4.20;3.80;;;;;;;;;;5074594;28;20418;-75
2023/06/19 13:27:08;;;;;;;5.47;3.20;;;;;;;;;;5074822;28;20408;-75
2023/06/19 13:29:34;;;;;;;4.43;3.53;;;;;;;;;;5074391;28;20407;-75
2023/06/19 13:32:01;;;;;;;6.00;3.50;;;;;;;;;;5074703;28;20439;-75
2023/06/19 13:34:27;;;;;;;6.10;3.80;;;;;;;;;;5074343;28;20765;-75
2023/06/19 13:36:53;;;;;;;10.43;3.40;;;;;;;;;;5074068;28;20471;-75
2023/06/19 13:39:19;;;;;;;4.70;4.20;;;;;;;;;;5074189;28;20553;-75
2023/06/19 13:41:46;;;;;;;4.77;3.50;;;;;;;;;;5074131;28;20411;-75
2023/06/19 13:44:12;;;;;;;5.07;3.97;;;;;;;;;;5074121;28;20465;-75
2023/06/19 13:46:38;;;;;;;7.67;4.10;;;;;;;;;;5074026;28;20426;-75
2023/06/19 13:49:04;;;;;;;4.60;4.20;;;;;;;;;;5074149;28;20406;-75
2023/06/19 13:51:30;;;;;;;5.60;3.33;;;;;;;;;;5073863;28;20495;-75
2023/06/19 13:53:57;;;;;;;3.37;3.07;;;;;;;;;;5073823;28;20502;-75
2023/06/19 13:56:23;;;;;;;7.57;3.30;;;;;;;;;;5074204;28;20639;-75
2023/06/19 13:58:49;;;;;;;4.27;3.40;;;;;;;;;;5073757;28;20860;-75
2023/06/19 14:01:15;;;;;;;4.23;3.60;;;;;;;;;;5074215;28;20407;-75
2023/06/19 14:03:41;;;;;;;4.67;3.70;;;;;;;;;;5073585;28;20452;-75
2023/06/19 14:06:08;;;;;;;5.80;3.77;;;;;;;;;;5073786;28;20404;-75
2023/06/19 14:08:34;;;;;;;4.53;3.20;;;;;;;;;;5073729;28;20507;-75
2023/06/19 14:11:00;;;;;;;5.30;3.17;;;;;;;;;;5074046;28;20407;-75
2023/06/19 14:13:26;;;;;;;6.63;3.80;;;;;;;;;;5073943;28;20407;-75
2023/06/19 14:15:53;;;;;;;5.13;3.37;;;;;;;;;;5073873;28;20448;-75
2023/06/19 14:18:19;;;;;;;7.30;4.20;;;;;;;;;;5073572;28;20466;-75
2023/06/19 14:20:45;;;;;;;5.13;3.70;;;;;;;;;;5073174;28;20888;-75
2023/06/19 14:23:11;;;;;;;5.27;3.40;;;;;;;;;;5073704;28;20822;-76
2023/06/19 14:25:37;;;;;;;4.93;3.40;;;;;;;;;;5073460;28;20934;-76
2023/06/19 14:28:04;;;;;;;5.87;3.70;;;;;;;;;;5073736;28;20418;-75
2023/06/19 14:30:30;;;;;;;4.33;3.87;;;;;;;;;;5073024;28;20407;-76
2023/06/19 14:32:56;;;;;;;4.23;3.83;;;;;;;;;;5073235;28;20406;-76
2023/06/19 14:35:23;;;;;;;5.87;3.60;;;;;;;;;;5072848;28;20407;-73
2023/06/19 14:37:49;;;;;;;5.00;3.93;;;;;;;;;;5072871;28;20938;-73
2023/06/19 14:40:15;;;;;;;4.10;3.70;;;;;;;;;;5073091;28;20906;-73